sensor_id;sensor_type;location;lat;lon;timestamp;pressure;altitude;pressure_sealevel;temperature;humidity
37142;BME280;23041;49.816;20.092;2022-12-20T00:01:34;98535.02;;;4.68;37.71
37142;BME280;23041;49.816;20.092;2022-12-20T00:04:01;98539.14;;;4.72;37.70
37142;BME280;23041;49.816;20.092;2022-12-20T00:06:30;98548.66;;;4.72;37.71
37142;BME280;23041;49.816;20.092;2022-12-20T00:08:57;98484.53;;;4.54;37.85
37142;BME280;23041;49.816;20.092;2022-12-20T00:11:24;98539.23;;;4.49;38.10
37142;BME280;23041;49.816;20.092;2022-12-20T00:13:50;98528.36;;;4.36;38.30
37142;BME280;23041;49.816;20.092;2022-12-20T00:16:18;98517.99;;;4.28;38.58
37142;BME280;23041;49.816;20.092;2022-12-20T00:18:49;98531.11;;;4.23;38.80
37142;BME280;23041;49.816;20.092;2022-12-20T00:21:15;98541.34;;;4.20;39.02
37142;BME280;23041;49.816;20.092;2022-12-20T00:23:41;98537.37;;;4.27;39.11
37142;BME280;23041;49.816;20.092;2022-12-20T00:28:37;98539.52;;;4.27;39.34
37142;BME280;23041;49.816;20.092;2022-12-20T00:31:04;98531.41;;;4.31;39.44
37142;BME280;23041;49.816;20.092;2022-12-20T00:33:31;98543.38;;;4.39;39.40
37142;BME280;23041;49.816;20.092;2022-12-20T00:35:57;98541.59;;;4.50;39.32
37142;BME280;23041;49.816;20.092;2022-12-20T00:38:23;98532.33;;;4.42;39.39
37142;BME280;23041;49.816;20.092;2022-12-20T00:41:03;98540.77;;;4.46;39.46
37142;BME280;23041;49.816;20.092;2022-12-20T00:43:34;98534.80;;;4.50;39.47
37142;BME280;23041;49.816;20.092;2022-12-20T00:46:00;98537.44;;;4.60;39.44
37142;BME280;23041;49.816;20.092;2022-12-20T00:48:27;98547.23;;;4.65;39.45
37142;BME280;23041;49.816;20.092;2022-12-20T00:50:58;98543.09;;;4.61;39.54
37142;BME280;23041;49.816;20.092;2022-12-20T00:53:24;98566.38;;;4.59;39.63
37142;BME280;23041;49.816;20.092;2022-12-20T00:55:50;98577.97;;;4.56;39.79
37142;BME280;23041;49.816;20.092;2022-12-20T00:58:16;98549.89;;;4.48;39.90
37142;BME280;23041;49.816;20.092;2022-12-20T01:00:42;98577.57;;;4.40;40.09
37142;BME280;23041;49.816;20.092;2022-12-20T01:03:08;98572.84;;;4.24;40.30
37142;BME280;23041;49.816;20.092;2022-12-20T01:05:34;98573.33;;;4.17;40.51
37142;BME280;23041;49.816;20.092;2022-12-20T01:08:00;98581.84;;;4.15;40.71
37142;BME280;23041;49.816;20.092;2022-12-20T01:10:26;98569.53;;;4.11;40.92
37142;BME280;23041;49.816;20.092;2022-12-20T01:12:52;98592.80;;;4.09;41.10
37142;BME280;23041;49.816;20.092;2022-12-20T01:15:19;98575.67;;;4.05;41.26
37142;BME280;23041;49.816;20.092;2022-12-20T01:17:45;98594.25;;;4.03;41.40
37142;BME280;23041;49.816;20.092;2022-12-20T01:20:12;98599.69;;;4.03;41.53
37142;BME280;23041;49.816;20.092;2022-12-20T01:22:38;98596.62;;;4.04;41.62
37142;BME280;23041;49.816;20.092;2022-12-20T01:25:04;98578.57;;;4.06;41.69
37142;BME280;23041;49.816;20.092;2022-12-20T01:27:31;98558.63;;;4.08;41.76
37142;BME280;23041;49.816;20.092;2022-12-20T01:29:57;98555.48;;;4.06;41.88
37142;BME280;23041;49.816;20.092;2022-12-20T01:32:23;98565.95;;;4.04;41.95
37142;BME280;23041;49.816;20.092;2022-12-20T01:34:49;98555.87;;;4.04;42.04
37142;BME280;23041;49.816;20.092;2022-12-20T01:37:15;98551.63;;;4.07;42.09
37142;BME280;23041;49.816;20.092;2022-12-20T01:39:41;98546.27;;;4.10;42.11
37142;BME280;23041;49.816;20.092;2022-12-20T01:42:10;98532.29;;;4.12;42.10
37142;BME280;23041;49.816;20.092;2022-12-20T01:47:09;98534.53;;;4.06;42.22
37142;BME280;23041;49.816;20.092;2022-12-20T01:49:38;98535.32;;;4.07;42.32
37142;BME280;23041;49.816;20.092;2022-12-20T01:52:07;98532.56;;;4.03;42.41
37142;BME280;23041;49.816;20.092;2022-12-20T01:54:48;98531.62;;;3.92;42.49
37142;BME280;23041;49.816;20.092;2022-12-20T01:57:17;98535.75;;;4.09;42.52
37142;BME280;23041;49.816;20.092;2022-12-20T01:59:46;98537.72;;;4.12;42.55
37142;BME280;23041;49.816;20.092;2022-12-20T02:02:14;98492.00;;;4.18;42.46
37142;BME280;23041;49.816;20.092;2022-12-20T02:04:41;98519.70;;;4.27;42.33
37142;BME280;23041;49.816;20.092;2022-12-20T02:07:07;98518.13;;;4.39;42.14
37142;BME280;23041;49.816;20.092;2022-12-20T02:09:34;98498.30;;;4.51;41.87
37142;BME280;23041;49.816;20.092;2022-12-20T02:31:11;98479.84;;;4.84;40.77
37142;BME280;23041;49.816;20.092;2022-12-20T02:33:40;98473.11;;;4.88;40.72
37142;BME280;23041;49.816;20.092;2022-12-20T02:36:07;98483.44;;;4.92;40.74
37142;BME280;23041;49.816;20.092;2022-12-20T02:38:34;98494.47;;;4.89;40.79
37142;BME280;23041;49.816;20.092;2022-12-20T02:41:05;98493.69;;;4.89;40.90
37142;BME280;23041;49.816;20.092;2022-12-20T02:43:32;98498.86;;;4.81;41.09
37142;BME280;23041;49.816;20.092;2022-12-20T02:46:19;98483.97;;;4.71;41.30
37142;BME280;23041;49.816;20.092;2022-12-20T02:48:46;98484.17;;;4.72;41.41
37142;BME280;23041;49.816;20.092;2022-12-20T02:51:13;98481.99;;;4.85;41.40
37142;BME280;23041;49.816;20.092;2022-12-20T02:53:40;98474.52;;;4.95;41.34
37142;BME280;23041;49.816;20.092;2022-12-20T02:56:15;98475.96;;;5.02;41.26
37142;BME280;23041;49.816;20.092;2022-12-20T02:58:48;98479.31;;;5.05;41.21
37142;BME280;23041;49.816;20.092;2022-12-20T03:01:22;98474.60;;;5.02;41.20
37142;BME280;23041;49.816;20.092;2022-12-20T03:03:51;98460.45;;;4.86;41.38
37142;BME280;23041;49.816;20.092;2022-12-20T03:06:18;98466.23;;;4.64;41.58
37142;BME280;23041;49.816;20.092;2022-12-20T03:08:45;98461.19;;;4.49;41.80
37142;BME280;23041;49.816;20.092;2022-12-20T03:11:11;98470.36;;;4.38;41.96
37142;BME280;23041;49.816;20.092;2022-12-20T03:13:38;98465.61;;;4.31;42.17
37142;BME280;23041;49.816;20.092;2022-12-20T03:16:05;98456.20;;;4.25;42.39
37142;BME280;23041;49.816;20.092;2022-12-20T03:18:31;98477.70;;;4.21;42.57
37142;BME280;23041;49.816;20.092;2022-12-20T03:20:57;98472.98;;;4.18;42.74
37142;BME280;23041;49.816;20.092;2022-12-20T03:23:23;98481.52;;;4.16;42.88
37142;BME280;23041;49.816;20.092;2022-12-20T03:25:49;98504.80;;;4.17;42.98
37142;BME280;23041;49.816;20.092;2022-12-20T03:28:15;98504.41;;;4.15;43.10
37142;BME280;23041;49.816;20.092;2022-12-20T03:30:41;98498.97;;;4.15;43.21
37142;BME280;23041;49.816;20.092;2022-12-20T03:33:07;98486.78;;;4.19;43.26
37142;BME280;23041;49.816;20.092;2022-12-20T03:35:33;98497.50;;;4.21;43.29
37142;BME280;23041;49.816;20.092;2022-12-20T03:37:59;98478.31;;;4.24;43.31
37142;BME280;23041;49.816;20.092;2022-12-20T03:40:25;98487.13;;;4.30;43.26
37142;BME280;23041;49.816;20.092;2022-12-20T03:42:51;98486.41;;;4.33;43.24
37142;BME280;23041;49.816;20.092;2022-12-20T03:45:17;98469.32;;;4.33;43.20
37142;BME280;23041;49.816;20.092;2022-12-20T03:47:43;98469.11;;;4.32;43.25
37142;BME280;23041;49.816;20.092;2022-12-20T03:50:09;98444.66;;;4.32;43.22
37142;BME280;23041;49.816;20.092;2022-12-20T03:52:36;98456.77;;;4.38;43.09
37142;BME280;23041;49.816;20.092;2022-12-20T03:55:03;98455.08;;;4.43;42.92
37142;BME280;23041;49.816;20.092;2022-12-20T03:57:29;98467.52;;;4.44;42.85
37142;BME280;23041;49.816;20.092;2022-12-20T03:59:55;98466.26;;;4.51;42.75
37142;BME280;23041;49.816;20.092;2022-12-20T04:02:21;98447.83;;;4.54;42.68
37142;BME280;23041;49.816;20.092;2022-12-20T04:04:48;98448.67;;;4.58;42.56
37142;BME280;23041;49.816;20.092;2022-12-20T04:07:14;98474.39;;;4.64;42.44
37142;BME280;23041;49.816;20.092;2022-12-20T04:09:40;98460.22;;;4.65;42.37
37142;BME280;23041;49.816;20.092;2022-12-20T04:12:06;98441.13;;;4.61;42.38
37142;BME280;23041;49.816;20.092;2022-12-20T04:14:32;98454.48;;;4.57;42.40
37142;BME280;23041;49.816;20.092;2022-12-20T04:16:58;98449.95;;;4.51;42.46
37142;BME280;23041;49.816;20.092;2022-12-20T04:19:24;98451.42;;;4.45;42.48
37142;BME280;23041;49.816;20.092;2022-12-20T04:21:50;98455.25;;;4.40;42.46
37142;BME280;23041;49.816;20.092;2022-12-20T04:24:16;98442.57;;;4.35;42.46
37142;BME280;23041;49.816;20.092;2022-12-20T04:26:42;98450.23;;;4.29;42.46
37142;BME280;23041;49.816;20.092;2022-12-20T04:29:08;98443.20;;;4.25;42.46
37142;BME280;23041;49.816;20.092;2022-12-20T04:31:34;98453.67;;;4.23;42.38
37142;BME280;23041;49.816;20.092;2022-12-20T04:34:00;98456.32;;;4.19;42.36
37142;BME280;23041;49.816;20.092;2022-12-20T04:36:26;98447.14;;;4.14;42.35
37142;BME280;23041;49.816;20.092;2022-12-20T04:38:52;98440.81;;;4.06;42.42
37142;BME280;23041;49.816;20.092;2022-12-20T04:41:18;98448.17;;;4.06;42.46
37142;BME280;23041;49.816;20.092;2022-12-20T04:43:48;98458.58;;;4.14;42.46
37142;BME280;23041;49.816;20.092;2022-12-20T04:46:18;98441.23;;;4.22;42.45
37142;BME280;23041;49.816;20.092;2022-12-20T04:48:44;98440.72;;;4.29;42.44
37142;BME280;23041;49.816;20.092;2022-12-20T04:51:11;98439.36;;;4.29;42.44
37142;BME280;23041;49.816;20.092;2022-12-20T04:53:37;98439.58;;;4.30;42.41
37142;BME280;23041;49.816;20.092;2022-12-20T04:56:17;98436.83;;;4.27;42.38
37142;BME280;23041;49.816;20.092;2022-12-20T04:58:42;98436.23;;;4.10;42.34
37142;BME280;23041;49.816;20.092;2022-12-20T05:01:08;98427.80;;;4.19;42.31
37142;BME280;23041;49.816;20.092;2022-12-20T05:03:34;98427.76;;;4.16;42.32
37142;BME280;23041;49.816;20.092;2022-12-20T05:06:00;98433.09;;;4.08;42.37
37142;BME280;23041;49.816;20.092;2022-12-20T05:08:26;98427.98;;;4.03;42.40
37142;BME280;23041;49.816;20.092;2022-12-20T05:10:52;98423.80;;;3.83;42.44
37142;BME280;23041;49.816;20.092;2022-12-20T05:13:18;98440.99;;;3.91;42.51
37142;BME280;23041;49.816;20.092;2022-12-20T05:15:44;98430.59;;;3.70;42.59
37142;BME280;23041;49.816;20.092;2022-12-20T05:18:10;98431.95;;;3.83;42.64
37142;BME280;23041;49.816;20.092;2022-12-20T05:20:36;98413.95;;;3.85;42.66
37142;BME280;23041;49.816;20.092;2022-12-20T05:23:02;98434.67;;;3.83;42.69
37142;BME280;23041;49.816;20.092;2022-12-20T05:25:47;98439.09;;;3.82;42.74
37142;BME280;23041;49.816;20.092;2022-12-20T05:28:32;98437.56;;;3.81;42.82
37142;BME280;23041;49.816;20.092;2022-12-20T05:30:59;98435.12;;;3.76;42.90
37142;BME280;23041;49.816;20.092;2022-12-20T05:33:25;98448.30;;;3.74;42.96
37142;BME280;23041;49.816;20.092;2022-12-20T05:35:51;98434.73;;;3.74;43.00
37142;BME280;23041;49.816;20.092;2022-12-20T05:38:17;98446.73;;;3.73;42.99
37142;BME280;23041;49.816;20.092;2022-12-20T05:40:45;98445.95;;;3.72;43.04
37142;BME280;23041;49.816;20.092;2022-12-20T05:43:14;98428.09;;;3.71;43.06
37142;BME280;23041;49.816;20.092;2022-12-20T05:45:44;98438.55;;;3.69;43.11
37142;BME280;23041;49.816;20.092;2022-12-20T05:48:13;98435.19;;;3.66;43.16
37142;BME280;23041;49.816;20.092;2022-12-20T05:50:40;98441.94;;;3.62;43.21
37142;BME280;23041;49.816;20.092;2022-12-20T05:53:09;98432.62;;;3.63;43.25
37142;BME280;23041;49.816;20.092;2022-12-20T05:55:36;98419.94;;;3.71;43.23
37142;BME280;23041;49.816;20.092;2022-12-20T05:58:05;98436.91;;;3.78;43.19
37142;BME280;23041;49.816;20.092;2022-12-20T06:00:32;98435.31;;;3.86;43.10
37142;BME280;23041;49.816;20.092;2022-12-20T06:02:58;98441.99;;;3.92;43.02
37142;BME280;23041;49.816;20.092;2022-12-20T06:05:24;98452.47;;;3.94;42.95
37142;BME280;23041;49.816;20.092;2022-12-20T06:07:50;98451.28;;;3.91;42.91
37142;BME280;23041;49.816;20.092;2022-12-20T06:10:16;98435.13;;;3.89;42.86
37142;BME280;23041;49.816;20.092;2022-12-20T06:12:42;98439.74;;;3.85;42.83
37142;BME280;23041;49.816;20.092;2022-12-20T06:15:08;98456.39;;;3.83;42.79
37142;BME280;23041;49.816;20.092;2022-12-20T06:17:35;98454.31;;;3.86;42.67
37142;BME280;23041;49.816;20.092;2022-12-20T06:20:01;98468.97;;;3.82;42.59
37142;BME280;23041;49.816;20.092;2022-12-20T06:22:28;98454.56;;;3.78;42.52
37142;BME280;23041;49.816;20.092;2022-12-20T06:24:54;98452.20;;;3.76;42.38
37142;BME280;23041;49.816;20.092;2022-12-20T06:27:20;98458.91;;;3.69;42.40
37142;BME280;23041;49.816;20.092;2022-12-20T06:29:47;98459.72;;;3.60;42.45
37142;BME280;23041;49.816;20.092;2022-12-20T06:32:15;98448.53;;;3.52;42.46
37142;BME280;23041;49.816;20.092;2022-12-20T06:34:41;98450.59;;;3.36;42.54
37142;BME280;23041;49.816;20.092;2022-12-20T06:37:07;98439.66;;;3.42;42.59
37142;BME280;23041;49.816;20.092;2022-12-20T06:39:33;98447.22;;;3.42;42.66
37142;BME280;23041;49.816;20.092;2022-12-20T06:41:59;98436.51;;;3.40;42.71
37142;BME280;23041;49.816;20.092;2022-12-20T06:44:25;98430.94;;;3.42;42.79
37142;BME280;23041;49.816;20.092;2022-12-20T06:46:51;98432.16;;;3.45;42.87
37142;BME280;23041;49.816;20.092;2022-12-20T06:49:17;98420.92;;;3.33;42.92
37142;BME280;23041;49.816;20.092;2022-12-20T06:51:43;98428.78;;;3.51;42.98
37142;BME280;23041;49.816;20.092;2022-12-20T06:54:09;98437.86;;;3.62;42.96
37142;BME280;23041;49.816;20.092;2022-12-20T06:56:35;98428.95;;;3.75;42.91
37142;BME280;23041;49.816;20.092;2022-12-20T06:59:01;98433.78;;;3.89;42.89
37142;BME280;23041;49.816;20.092;2022-12-20T07:01:27;98418.63;;;4.01;42.86
37142;BME280;23041;49.816;20.092;2022-12-20T07:03:52;98430.30;;;4.18;42.74
37142;BME280;23041;49.816;20.092;2022-12-20T07:06:18;98411.83;;;4.31;42.65
37142;BME280;23041;49.816;20.092;2022-12-20T07:08:44;98416.99;;;4.39;42.60
37142;BME280;23041;49.816;20.092;2022-12-20T07:11:10;98420.07;;;4.55;42.56
37142;BME280;23041;49.816;20.092;2022-12-20T07:13:36;98403.56;;;4.70;42.53
37142;BME280;23041;49.816;20.092;2022-12-20T07:16:02;98405.19;;;4.78;42.49
37142;BME280;23041;49.816;20.092;2022-12-20T07:18:29;98405.47;;;4.86;42.47
37142;BME280;23041;49.816;20.092;2022-12-20T07:20:59;98414.86;;;4.92;42.42
37142;BME280;23041;49.816;20.092;2022-12-20T07:23:25;98403.63;;;4.98;42.30
37142;BME280;23041;49.816;20.092;2022-12-20T07:25:56;98406.38;;;5.01;42.20
37142;BME280;23041;49.816;20.092;2022-12-20T07:28:20;98405.64;;;5.04;42.13
37142;BME280;23041;49.816;20.092;2022-12-20T07:30:46;98404.88;;;5.07;42.04
37142;BME280;23041;49.816;20.092;2022-12-20T07:33:12;98377.72;;;5.11;42.01
37142;BME280;23041;49.816;20.092;2022-12-20T07:35:38;98380.88;;;5.16;41.97
37142;BME280;23041;49.816;20.092;2022-12-20T07:38:04;98380.38;;;5.27;41.89
37142;BME280;23041;49.816;20.092;2022-12-20T07:40:30;98378.94;;;5.41;41.85
37142;BME280;23041;49.816;20.092;2022-12-20T07:42:56;98378.42;;;5.52;41.78
37142;BME280;23041;49.816;20.092;2022-12-20T07:45:22;98385.72;;;5.64;41.71
37142;BME280;23041;49.816;20.092;2022-12-20T07:47:48;98375.38;;;5.88;41.63
37142;BME280;23041;49.816;20.092;2022-12-20T07:50:14;98384.69;;;6.73;41.59
37142;BME280;23041;49.816;20.092;2022-12-20T07:52:41;98404.33;;;8.18;41.50
37142;BME280;23041;49.816;20.092;2022-12-20T07:55:09;98373.64;;;9.76;41.29
37142;BME280;23041;49.816;20.092;2022-12-20T08:00:07;98396.47;;;11.86;40.32
37142;BME280;23041;49.816;20.092;2022-12-20T08:02:41;98407.22;;;12.52;39.57
37142;BME280;23041;49.816;20.092;2022-12-20T08:05:06;98391.60;;;13.21;39.02
37142;BME280;23041;49.816;20.092;2022-12-20T08:07:33;98380.13;;;13.71;38.44
37142;BME280;23041;49.816;20.092;2022-12-20T08:10:01;98379.91;;;14.02;37.78
37142;BME280;23041;49.816;20.092;2022-12-20T08:12:27;98385.59;;;14.32;37.15
37142;BME280;23041;49.816;20.092;2022-12-20T08:14:54;98386.20;;;14.03;36.49
37142;BME280;23041;49.816;20.092;2022-12-20T08:17:21;98383.91;;;13.77;36.03
37142;BME280;23041;49.816;20.092;2022-12-20T08:19:47;98378.50;;;13.41;35.64
37142;BME280;23041;49.816;20.092;2022-12-20T08:22:15;98388.16;;;13.25;35.29
37142;BME280;23041;49.816;20.092;2022-12-20T08:24:41;98398.72;;;13.10;34.99
37142;BME280;23041;49.816;20.092;2022-12-20T08:27:07;98402.55;;;13.16;34.61
37142;BME280;23041;49.816;20.092;2022-12-20T08:29:33;98368.73;;;13.77;34.61
37142;BME280;23041;49.816;20.092;2022-12-20T08:31:59;98388.92;;;13.66;34.45
37142;BME280;23041;49.816;20.092;2022-12-20T08:34:25;98381.09;;;13.48;34.28
37142;BME280;23041;49.816;20.092;2022-12-20T08:36:51;98393.00;;;12.93;34.03
37142;BME280;23041;49.816;20.092;2022-12-20T08:39:17;98388.31;;;12.54;33.87
37142;BME280;23041;49.816;20.092;2022-12-20T08:41:43;98385.77;;;11.80;33.99
37142;BME280;23041;49.816;20.092;2022-12-20T08:44:09;98403.58;;;11.37;34.22
37142;BME280;23041;49.816;20.092;2022-12-20T08:46:35;98390.25;;;11.48;34.48
37142;BME280;23041;49.816;20.092;2022-12-20T08:49:04;98390.28;;;11.44;34.57
37142;BME280;23041;49.816;20.092;2022-12-20T08:51:30;98385.70;;;11.37;34.55
37142;BME280;23041;49.816;20.092;2022-12-20T08:53:57;98390.13;;;11.31;34.63
37142;BME280;23041;49.816;20.092;2022-12-20T08:56:23;98388.20;;;11.40;34.78
37142;BME280;23041;49.816;20.092;2022-12-20T08:58:49;98380.44;;;11.46;34.82
37142;BME280;23041;49.816;20.092;2022-12-20T09:01:16;98384.75;;;11.48;34.89
37142;BME280;23041;49.816;20.092;2022-12-20T09:03:43;98373.83;;;11.56;34.83
37142;BME280;23041;49.816;20.092;2022-12-20T09:06:11;98375.81;;;11.78;34.66
37142;BME280;23041;49.816;20.092;2022-12-20T09:08:39;98373.65;;;12.21;34.52
37142;BME280;23041;49.816;20.092;2022-12-20T09:11:12;98379.40;;;12.38;34.57
37142;BME280;23041;49.816;20.092;2022-12-20T09:13:44;98378.06;;;12.26;34.62
37142;BME280;23041;49.816;20.092;2022-12-20T09:16:16;98384.99;;;12.03;34.70
37142;BME280;23041;49.816;20.092;2022-12-20T09:18:39;98372.64;;;12.11;34.79
37142;BME280;23041;49.816;20.092;2022-12-20T09:21:06;98372.38;;;12.25;34.77
37142;BME280;23041;49.816;20.092;2022-12-20T09:23:33;98361.73;;;12.36;34.81
37142;BME280;23041;49.816;20.092;2022-12-20T09:26:00;98368.33;;;12.78;34.86
37142;BME280;23041;49.816;20.092;2022-12-20T09:28:28;98367.05;;;14.12;34.96
37142;BME280;23041;49.816;20.092;2022-12-20T09:31:01;98361.17;;;15.05;34.83
37142;BME280;23041;49.816;20.092;2022-12-20T09:33:29;98357.74;;;14.89;34.60
37142;BME280;23041;49.816;20.092;2022-12-20T09:35:56;98348.81;;;14.43;34.34
37142;BME280;23041;49.816;20.092;2022-12-20T09:38:22;98348.93;;;14.40;34.24
37142;BME280;23041;49.816;20.092;2022-12-20T09:40:49;98352.46;;;14.32;34.20
37142;BME280;23041;49.816;20.092;2022-12-20T09:43:18;98346.30;;;13.91;34.10
37142;BME280;23041;49.816;20.092;2022-12-20T09:45:45;98348.71;;;13.28;33.94
37142;BME280;23041;49.816;20.092;2022-12-20T09:48:17;98346.69;;;13.04;34.01
37142;BME280;23041;49.816;20.092;2022-12-20T09:56:00;98347.04;;;11.83;34.19
37142;BME280;23041;49.816;20.092;2022-12-20T09:58:49;98338.71;;;11.86;34.27
37142;BME280;23041;49.816;20.092;2022-12-20T10:01:24;98341.93;;;11.93;34.06
37142;BME280;23041;49.816;20.092;2022-12-20T10:03:52;98336.30;;;12.00;33.75
37142;BME280;23041;49.816;20.092;2022-12-20T10:09:02;98348.03;;;11.93;34.21
37142;BME280;23041;49.816;20.092;2022-12-20T10:11:38;98347.42;;;11.73;34.49
37142;BME280;23041;49.816;20.092;2022-12-20T10:14:20;98358.94;;;11.53;34.67
37142;BME280;23041;49.816;20.092;2022-12-20T10:17:01;98358.63;;;11.48;34.86
37142;BME280;23041;49.816;20.092;2022-12-20T10:22:22;98368.18;;;11.63;35.27
37142;BME280;23041;49.816;20.092;2022-12-20T10:25:07;98367.11;;;11.33;35.51
37142;BME280;23041;49.816;20.092;2022-12-20T10:27:28;98366.30;;;11.10;35.76
37142;BME280;23041;49.816;20.092;2022-12-20T10:29:54;98363.25;;;11.04;36.02
37142;BME280;23041;49.816;20.092;2022-12-20T10:32:21;98358.82;;;11.49;36.28
37142;BME280;23041;49.816;20.092;2022-12-20T10:34:53;98338.12;;;12.82;36.58
37142;BME280;23041;49.816;20.092;2022-12-20T10:37:22;98327.39;;;14.06;36.64
37142;BME280;23041;49.816;20.092;2022-12-20T10:39:49;98324.77;;;14.56;36.42
37142;BME280;23041;49.816;20.092;2022-12-20T10:44:51;98319.12;;;12.96;36.04
37142;BME280;23041;49.816;20.092;2022-12-20T10:50:12;98308.73;;;11.61;36.13
37142;BME280;23041;49.816;20.092;2022-12-20T10:52:41;98309.50;;;11.03;36.34
37142;BME280;23041;49.816;20.092;2022-12-20T10:58:13;98296.88;;;9.95;36.91
37142;BME280;23041;49.816;20.092;2022-12-20T11:00:47;98297.07;;;9.77;37.29
37142;BME280;23041;49.816;20.092;2022-12-20T11:03:18;98276.78;;;9.52;37.61
37142;BME280;23041;49.816;20.092;2022-12-20T11:05:53;98276.72;;;9.37;37.92
37142;BME280;23041;49.816;20.092;2022-12-20T11:08:24;98264.98;;;9.36;38.24
37142;BME280;23041;49.816;20.092;2022-12-20T11:11:09;98256.48;;;9.46;38.48
37142;BME280;23041;49.816;20.092;2022-12-20T11:13:25;98239.67;;;10.08;38.82
37142;BME280;23041;49.816;20.092;2022-12-20T11:15:51;98238.33;;;10.50;38.99
37142;BME280;23041;49.816;20.092;2022-12-20T11:21:02;98257.08;;;10.55;39.00
37142;BME280;23041;49.816;20.092;2022-12-20T11:26:34;98242.70;;;10.48;38.87
37142;BME280;23041;49.816;20.092;2022-12-20T11:40:30;98232.82;;;14.10;38.46
37142;BME280;23041;49.816;20.092;2022-12-20T11:53:59;98223.02;;;17.43;36.41
37142;BME280;23041;49.816;20.092;2022-12-20T11:56:33;98212.30;;;18.75;35.75
37142;BME280;23041;49.816;20.092;2022-12-20T11:59:49;98217.20;;;19.08;34.94
37142;BME280;23041;49.816;20.092;2022-12-20T12:01:40;98201.36;;;18.20;33.93
37142;BME280;23041;49.816;20.092;2022-12-20T12:04:20;98197.53;;;16.99;32.83
37142;BME280;23041;49.816;20.092;2022-12-20T12:06:56;98207.67;;;16.13;32.06
37142;BME280;23041;49.816;20.092;2022-12-20T12:09:43;98209.60;;;15.26;31.30
37142;BME280;23041;49.816;20.092;2022-12-20T12:17:36;98201.19;;;14.19;30.87
37142;BME280;23041;49.816;20.092;2022-12-20T12:23:23;98201.05;;;13.27;31.52
37142;BME280;23041;49.816;20.092;2022-12-20T12:25:54;98209.59;;;12.84;31.87
37142;BME280;23041;49.816;20.092;2022-12-20T12:28:26;98208.13;;;12.39;32.25
37142;BME280;23041;49.816;20.092;2022-12-20T12:30:56;98205.84;;;12.09;32.70
37142;BME280;23041;49.816;20.092;2022-12-20T12:33:27;98209.20;;;11.89;33.13
37142;BME280;23041;49.816;20.092;2022-12-20T12:41:45;98217.23;;;11.17;34.54
37142;BME280;23041;49.816;20.092;2022-12-20T12:47:00;98198.03;;;10.32;35.49
37142;BME280;23041;49.816;20.092;2022-12-20T12:49:28;98205.48;;;10.01;35.91
37142;BME280;23041;49.816;20.092;2022-12-20T12:51:56;98188.23;;;9.74;36.28
37142;BME280;23041;49.816;20.092;2022-12-20T12:54:28;98181.69;;;9.30;36.64
37142;BME280;23041;49.816;20.092;2022-12-20T12:57:01;98180.33;;;8.93;37.00
37142;BME280;23041;49.816;20.092;2022-12-20T13:04:52;98176.39;;;8.20;38.24
37142;BME280;23041;49.816;20.092;2022-12-20T13:07:27;98177.77;;;8.16;38.66
37142;BME280;23041;49.816;20.092;2022-12-20T13:10:54;98172.21;;;8.01;38.99
37142;BME280;23041;49.816;20.092;2022-12-20T13:18:00;98174.52;;;8.06;39.91
37142;BME280;23041;49.816;20.092;2022-12-20T13:20:29;98173.32;;;7.78;40.12
37142;BME280;23041;49.816;20.092;2022-12-20T13:25:39;98180.22;;;8.00;40.89
37142;BME280;23041;49.816;20.092;2022-12-20T13:33:39;98187.28;;;8.31;41.52
37142;BME280;23041;49.816;20.092;2022-12-20T13:36:28;98196.52;;;8.18;41.64
37142;BME280;23041;49.816;20.092;2022-12-20T13:44:08;98204.30;;;7.90;42.22
37142;BME280;23041;49.816;20.092;2022-12-20T13:46:57;98198.36;;;7.66;42.45
37142;BME280;23041;49.816;20.092;2022-12-20T13:49:31;98192.59;;;7.43;42.70
37142;BME280;23041;49.816;20.092;2022-12-20T13:52:20;98196.38;;;7.19;42.96
37142;BME280;23041;49.816;20.092;2022-12-20T13:54:47;98191.95;;;6.89;43.20
37142;BME280;23041;49.816;20.092;2022-12-20T13:57:25;98201.91;;;6.59;43.52
37142;BME280;23041;49.816;20.092;2022-12-20T13:59:49;98191.77;;;6.42;43.76
37142;BME280;23041;49.816;20.092;2022-12-20T14:02:18;98196.59;;;6.10;44.02
37142;BME280;23041;49.816;20.092;2022-12-20T14:04:49;98177.81;;;5.81;44.27
37142;BME280;23041;49.816;20.092;2022-12-20T14:07:16;98195.87;;;5.72;44.56
37142;BME280;23041;49.816;20.092;2022-12-20T14:09:43;98193.52;;;5.60;44.81
37142;BME280;23041;49.816;20.092;2022-12-20T14:12:11;98187.05;;;5.48;45.05
37142;BME280;23041;49.816;20.092;2022-12-20T14:14:42;98192.83;;;5.36;45.27
37142;BME280;23041;49.816;20.092;2022-12-20T14:17:23;98186.89;;;5.19;45.49
37142;BME280;23041;49.816;20.092;2022-12-20T14:20:04;98192.70;;;5.11;45.70
37142;BME280;23041;49.816;20.092;2022-12-20T14:22:33;98189.13;;;5.00;45.96
37142;BME280;23041;49.816;20.092;2022-12-20T14:25:00;98190.48;;;4.72;46.19
37142;BME280;23041;49.816;20.092;2022-12-20T14:27:28;98205.31;;;4.55;46.45
37142;BME280;23041;49.816;20.092;2022-12-20T14:29:57;98206.06;;;4.28;46.67
37142;BME280;23041;49.816;20.092;2022-12-20T14:32:24;98204.01;;;4.18;46.99
37142;BME280;23041;49.816;20.092;2022-12-20T14:34:51;98211.38;;;4.17;47.31
37142;BME280;23041;49.816;20.092;2022-12-20T14:37:33;98211.08;;;4.26;47.63
37142;BME280;23041;49.816;20.092;2022-12-20T14:40:03;98185.83;;;4.22;47.90
37142;BME280;23041;49.816;20.092;2022-12-20T14:42:38;98193.70;;;4.34;48.18
37142;BME280;23041;49.816;20.092;2022-12-20T14:45:14;98201.20;;;4.27;48.39
37142;BME280;23041;49.816;20.092;2022-12-20T14:47:37;98200.92;;;4.19;48.56
37142;BME280;23041;49.816;20.092;2022-12-20T14:50:04;98221.86;;;4.15;48.74
37142;BME280;23041;49.816;20.092;2022-12-20T14:52:36;98224.16;;;4.13;48.92
37142;BME280;23041;49.816;20.092;2022-12-20T14:55:07;98217.28;;;4.06;49.06
37142;BME280;23041;49.816;20.092;2022-12-20T15:16:11;98230.78;;;3.62;50.47
37142;BME280;23041;49.816;20.092;2022-12-20T15:18:39;98229.59;;;3.46;50.59